Time;durP1;ratioP1;P1;durP2;ratioP2;P2;SDS_P1;SDS_P2;PMS_P1;PMS_P2;Temp;Humidity;BMP_temperature;BMP_pressure;BME280_temperature;BME280_humidity;BME280_pressure;Samples;Min_cycle;Max_cycle;Signal;HPM_P1;HPM_P2
2022/04/10 00:00:59;;;;;;;9.27;3.27;;;;;;;;;;5051005;28;20794;-79
2022/04/10 00:03:27;;;;;;;7.27;3.03;;;;;;;;;;5048180;28;20827;-80
2022/04/10 00:05:54;;;;;;;9.27;2.97;;;;;;;;;;5046655;28;20688;-80
2022/04/10 00:08:22;;;;;;;9.73;3.13;;;;;;;;;;5044710;28;20207;-79
2022/04/10 00:10:49;;;;;;;6.43;2.83;;;;;;;;;;5052383;28;20283;-81
2022/04/10 00:13:20;;;;;;;4.77;2.87;;;;;;;;;;5041274;28;20211;-82
2022/04/10 00:15:47;;;;;;;9.23;3.03;;;;;;;;;;5048166;28;20222;-80
2022/04/10 00:18:14;;;;;;;5.43;3.03;;;;;;;;;;5044386;28;20266;-79
2022/04/10 00:20:43;;;;;;;7.43;2.90;;;;;;;;;;5047403;28;20226;-80
2022/04/10 00:26:22;;;;;;;7.93;3.40;;;;;;;;;;5041338;28;20203;-79
2022/04/10 00:28:51;;;;;;;7.20;2.90;;;;;;;;;;5043427;28;20203;-79
2022/04/10 00:31:18;;;;;;;11.20;3.10;;;;;;;;;;5043467;28;20262;-80
2022/04/10 00:33:46;;;;;;;7.37;3.13;;;;;;;;;;5042404;28;20207;-80
2022/04/10 00:36:15;;;;;;;11.43;3.23;;;;;;;;;;5044762;28;20690;-79
2022/04/10 00:38:42;;;;;;;8.33;3.37;;;;;;;;;;5045919;28;20230;-78
2022/04/10 00:41:10;;;;;;;10.60;3.30;;;;;;;;;;5047682;28;21174;-77
2022/04/10 00:43:39;;;;;;;9.43;3.40;;;;;;;;;;5040837;28;20222;-77
2022/04/10 00:46:07;;;;;;;12.83;3.37;;;;;;;;;;5041673;28;20238;-78
2022/04/10 00:48:34;;;;;;;9.27;3.40;;;;;;;;;;5043619;28;20207;-79
2022/04/10 00:53:50;;;;;;;8.00;3.17;;;;;;;;;;5027043;28;20673;-78
2022/04/10 00:56:17;;;;;;;10.20;3.30;;;;;;;;;;5046499;28;20227;-77
2022/04/10 00:58:44;;;;;;;6.70;3.10;;;;;;;;;;5043725;28;20282;-78
2022/04/10 01:01:11;;;;;;;12.40;3.53;;;;;;;;;;5045792;28;20277;-78
2022/04/10 01:03:39;;;;;;;10.30;3.80;;;;;;;;;;5041380;28;20282;-78
2022/04/10 01:06:06;;;;;;;8.63;3.43;;;;;;;;;;5048722;28;20253;-78
2022/04/10 01:08:34;;;;;;;9.40;3.80;;;;;;;;;;5055175;28;20211;-78
2022/04/10 01:11:03;;;;;;;7.10;3.33;;;;;;;;;;5043665;28;20270;-78
2022/04/10 01:13:30;;;;;;;11.23;3.40;;;;;;;;;;5046511;28;20233;-79
2022/04/10 01:15:57;;;;;;;17.00;4.03;;;;;;;;;;5043203;28;20253;-79
2022/04/10 01:18:25;;;;;;;17.03;3.60;;;;;;;;;;5049836;28;20736;-79
2022/04/10 01:20:52;;;;;;;14.07;3.70;;;;;;;;;;5046734;28;20271;-80
2022/04/10 01:23:21;;;;;;;9.03;3.53;;;;;;;;;;5042060;28;20194;-78
2022/04/10 01:25:48;;;;;;;9.07;3.53;;;;;;;;;;5045713;28;20302;-79
2022/04/10 01:28:15;;;;;;;15.50;3.27;;;;;;;;;;5037480;28;20255;-80
2022/04/10 01:30:44;;;;;;;6.53;3.00;;;;;;;;;;5037805;28;20656;-79
2022/04/10 01:33:11;;;;;;;9.87;3.53;;;;;;;;;;5049636;28;20207;-80
2022/04/10 01:35:38;;;;;;;12.03;3.60;;;;;;;;;;5040660;28;20234;-79
2022/04/10 01:38:06;;;;;;;6.43;3.00;;;;;;;;;;5044395;28;20302;-80
2022/04/10 01:40:35;;;;;;;11.40;3.23;;;;;;;;;;5046103;28;20227;-81
2022/04/10 01:43:02;;;;;;;11.33;4.00;;;;;;;;;;5043623;28;20249;-79
2022/04/10 01:45:29;;;;;;;15.27;3.80;;;;;;;;;;5047246;28;20254;-80
2022/04/10 01:47:56;;;;;;;8.20;3.63;;;;;;;;;;5045091;28;20234;-80
2022/04/10 01:50:24;;;;;;;9.53;3.53;;;;;;;;;;5045263;28;20309;-79
2022/04/10 01:52:51;;;;;;;9.70;3.33;;;;;;;;;;5044627;28;20287;-81
2022/04/10 01:55:18;;;;;;;10.33;3.37;;;;;;;;;;5043208;28;20220;-80
2022/04/10 01:57:47;;;;;;;13.87;3.60;;;;;;;;;;5043195;28;20431;-80
2022/04/10 02:00:14;;;;;;;8.03;3.03;;;;;;;;;;5041383;28;20235;-80
2022/04/10 02:02:42;;;;;;;9.17;3.00;;;;;;;;;;5043937;28;20246;-80
2022/04/10 02:05:10;;;;;;;9.30;3.20;;;;;;;;;;5039469;28;20306;-79
2022/04/10 02:07:37;;;;;;;11.73;3.40;;;;;;;;;;5045220;28;20211;-81
2022/04/10 02:10:08;;;;;;;14.73;3.60;;;;;;;;;;5042253;28;20249;-80
2022/04/10 02:12:35;;;;;;;10.17;4.10;;;;;;;;;;5044011;28;20454;-79
2022/04/10 02:15:04;;;;;;;13.27;4.40;;;;;;;;;;5036893;28;20282;-80
2022/04/10 02:17:31;;;;;;;11.50;4.33;;;;;;;;;;5038034;28;20291;-79
2022/04/10 02:19:58;;;;;;;14.10;4.13;;;;;;;;;;5045849;28;20273;-80
2022/04/10 02:22:25;;;;;;;14.20;4.87;;;;;;;;;;5044738;28;20255;-80
2022/04/10 02:24:54;;;;;;;11.33;4.53;;;;;;;;;;5043332;28;20235;-79
2022/04/10 02:27:21;;;;;;;10.13;3.70;;;;;;;;;;5042858;28;20257;-80
2022/04/10 02:29:48;;;;;;;7.97;3.80;;;;;;;;;;5042596;28;20238;-79
2022/04/10 02:32:17;;;;;;;9.27;3.93;;;;;;;;;;5043359;28;20208;-79
2022/04/10 02:34:44;;;;;;;14.97;3.93;;;;;;;;;;5041228;28;20253;-77
2022/04/10 02:37:11;;;;;;;7.77;4.10;;;;;;;;;;5037836;28;20203;-77
2022/04/10 02:39:39;;;;;;;10.30;4.10;;;;;;;;;;5042831;28;20245;-79
2022/04/10 02:42:06;;;;;;;9.60;3.63;;;;;;;;;;5044751;28;20739;-78
2022/04/10 02:44:34;;;;;;;13.47;4.00;;;;;;;;;;5040116;28;20229;-79
2022/04/10 02:47:01;;;;;;;16.60;4.17;;;;;;;;;;5040632;28;20208;-79
2022/04/10 02:49:30;;;;;;;16.77;4.43;;;;;;;;;;5046953;28;21994;-79
2022/04/10 02:51:57;;;;;;;11.43;4.63;;;;;;;;;;5041434;28;20211;-79
2022/04/10 02:54:24;;;;;;;9.10;4.00;;;;;;;;;;5045559;28;20245;-79
2022/04/10 02:56:51;;;;;;;15.03;4.83;;;;;;;;;;5039669;28;20208;-78
2022/04/10 02:59:18;;;;;;;11.03;4.60;;;;;;;;;;5053300;22;20219;-78
2022/04/10 03:01:49;;;;;;;10.50;4.67;;;;;;;;;;5037841;28;20246;-78
2022/04/10 03:04:17;;;;;;;15.77;5.33;;;;;;;;;;5035916;28;20219;-78
2022/04/10 03:06:45;;;;;;;11.73;4.60;;;;;;;;;;5036577;28;20255;-78
2022/04/10 03:09:13;;;;;;;11.30;4.97;;;;;;;;;;5041581;28;20296;-78
2022/04/10 03:11:40;;;;;;;13.43;4.33;;;;;;;;;;5034934;28;20661;-78
2022/04/10 03:14:07;;;;;;;14.13;4.60;;;;;;;;;;5043661;28;20894;-78
2022/04/10 03:16:34;;;;;;;10.27;4.73;;;;;;;;;;5038620;28;20210;-79
2022/04/10 03:19:02;;;;;;;14.87;4.60;;;;;;;;;;5042670;28;20721;-78
2022/04/10 03:21:29;;;;;;;11.17;4.43;;;;;;;;;;5041310;28;20682;-78
2022/04/10 03:23:57;;;;;;;15.63;4.93;;;;;;;;;;5037718;28;20207;-79
2022/04/10 03:26:24;;;;;;;16.97;5.40;;;;;;;;;;5049289;28;20673;-80
2022/04/10 03:28:52;;;;;;;15.17;4.20;;;;;;;;;;5049628;28;20251;-80
2022/04/10 03:31:20;;;;;;;12.03;4.60;;;;;;;;;;5044499;28;20317;-80
2022/04/10 03:33:47;;;;;;;10.00;4.40;;;;;;;;;;5044290;28;20302;-80
2022/04/10 03:36:14;;;;;;;17.17;4.83;;;;;;;;;;5041930;28;20841;-79
2022/04/10 03:38:42;;;;;;;12.33;4.77;;;;;;;;;;5039199;28;20196;-81
2022/04/10 03:41:10;;;;;;;12.27;4.67;;;;;;;;;;5047784;28;20292;-80
2022/04/10 03:43:38;;;;;;;11.80;4.60;;;;;;;;;;5039497;28;20235;-80
2022/04/10 03:46:05;;;;;;;14.17;4.40;;;;;;;;;;5044294;28;20223;-80
2022/04/10 03:48:32;;;;;;;13.67;4.43;;;;;;;;;;5043230;28;20196;-81
2022/04/10 03:51:00;;;;;;;18.23;5.70;;;;;;;;;;5039090;28;20220;-80
2022/04/10 03:53:27;;;;;;;14.00;4.70;;;;;;;;;;5042208;28;20615;-77
2022/04/10 03:55:54;;;;;;;9.77;4.53;;;;;;;;;;5041664;28;20200;-80
2022/04/10 03:58:23;;;;;;;14.03;4.50;;;;;;;;;;5042129;28;20246;-78
2022/04/10 04:00:50;;;;;;;13.93;4.83;;;;;;;;;;5038163;28;20270;-80
2022/04/10 04:03:17;;;;;;;16.10;4.90;;;;;;;;;;5043559;28;20926;-80
2022/04/10 04:05:44;;;;;;;17.40;4.33;;;;;;;;;;5036413;28;20789;-80
2022/04/10 04:08:11;;;;;;;12.07;5.17;;;;;;;;;;5041007;28;20208;-80
2022/04/10 04:10:38;;;;;;;16.57;5.30;;;;;;;;;;5047556;28;20314;-80
2022/04/10 04:13:06;;;;;;;10.63;4.40;;;;;;;;;;5044664;28;20665;-80
2022/04/10 04:15:34;;;;;;;10.70;4.63;;;;;;;;;;5038294;28;20310;-80
2022/04/10 04:18:01;;;;;;;15.47;4.50;;;;;;;;;;5039713;28;20196;-79
2022/04/10 04:20:29;;;;;;;14.83;4.83;;;;;;;;;;5042339;28;20259;-80
2022/04/10 04:22:56;;;;;;;9.70;4.77;;;;;;;;;;5042277;28;20247;-79
2022/04/10 04:25:24;;;;;;;14.40;4.50;;;;;;;;;;5046196;28;20215;-79
2022/04/10 04:27:51;;;;;;;15.10;4.90;;;;;;;;;;5041281;28;20217;-79
2022/04/10 04:30:18;;;;;;;14.03;5.30;;;;;;;;;;5038639;28;20767;-79
2022/04/10 04:32:47;;;;;;;16.27;5.23;;;;;;;;;;5038254;28;20278;-79
2022/04/10 04:35:15;;;;;;;12.50;4.83;;;;;;;;;;5041589;28;20291;-79
2022/04/10 04:37:42;;;;;;;12.60;5.23;;;;;;;;;;5049953;28;20458;-80
2022/04/10 04:40:10;;;;;;;11.43;4.77;;;;;;;;;;5041788;28;20234;-80
2022/04/10 04:42:38;;;;;;;16.53;5.10;;;;;;;;;;5048686;28;20207;-81
2022/04/10 04:45:05;;;;;;;12.10;5.20;;;;;;;;;;5041079;28;20294;-80
2022/04/10 04:47:32;;;;;;;16.27;4.97;;;;;;;;;;5040406;28;20233;-80
2022/04/10 04:50:01;;;;;;;12.67;5.27;;;;;;;;;;5036585;28;20311;-81
2022/04/10 04:52:28;;;;;;;19.90;5.50;;;;;;;;;;5042476;28;20299;-81
2022/04/10 04:54:55;;;;;;;11.63;4.70;;;;;;;;;;5045365;28;20238;-79
2022/04/10 04:57:23;;;;;;;10.00;5.10;;;;;;;;;;5039310;28;20226;-81
2022/04/10 04:59:50;;;;;;;11.67;4.80;;;;;;;;;;5044066;28;20743;-80
2022/04/10 05:02:17;;;;;;;13.17;5.13;;;;;;;;;;5044945;28;20291;-80
2022/04/10 05:04:44;;;;;;;12.93;5.90;;;;;;;;;;5040650;28;20227;-81
2022/04/10 05:07:13;;;;;;;13.67;4.77;;;;;;;;;;5046617;28;20230;-81
2022/04/10 05:09:40;;;;;;;13.57;5.23;;;;;;;;;;5041434;28;20652;-81
2022/04/10 05:12:08;;;;;;;10.50;5.03;;;;;;;;;;5041048;28;20208;-80
2022/04/10 05:14:35;;;;;;;15.17;5.17;;;;;;;;;;5041598;28;20330;-81
2022/04/10 05:17:02;;;;;;;9.37;4.63;;;;;;;;;;5036190;28;20286;-80
2022/04/10 05:19:29;;;;;;;10.67;5.20;;;;;;;;;;5043484;28;20309;-79
2022/04/10 05:21:57;;;;;;;12.23;4.77;;;;;;;;;;5047484;28;20665;-80
2022/04/10 05:24:25;;;;;;;10.13;4.43;;;;;;;;;;5051205;28;20290;-80
2022/04/10 05:26:52;;;;;;;11.77;4.87;;;;;;;;;;5038827;28;20318;-81
2022/04/10 05:29:19;;;;;;;10.40;4.73;;;;;;;;;;5038602;28;20203;-81
2022/04/10 05:31:47;;;;;;;13.13;5.20;;;;;;;;;;5044638;28;20205;-81
2022/04/10 05:34:14;;;;;;;17.13;5.17;;;;;;;;;;5040267;28;20240;-79
2022/04/10 05:36:41;;;;;;;18.87;5.80;;;;;;;;;;5034830;28;20683;-81
2022/04/10 05:39:08;;;;;;;15.13;5.40;;;;;;;;;;5041560;28;20286;-79
2022/04/10 05:41:37;;;;;;;16.67;5.20;;;;;;;;;;5037853;28;20270;-81
2022/04/10 05:44:04;;;;;;;11.77;4.80;;;;;;;;;;5042009;28;20285;-81
2022/04/10 05:46:31;;;;;;;13.73;5.10;;;;;;;;;;5037362;28;20749;-81
2022/04/10 05:48:58;;;;;;;8.50;5.00;;;;;;;;;;5041493;28;20217;-80
2022/04/10 05:51:26;;;;;;;16.97;5.17;;;;;;;;;;5040813;28;20752;-81
2022/04/10 05:53:53;;;;;;;11.83;5.23;;;;;;;;;;5041370;28;20267;-80
2022/04/10 05:56:20;;;;;;;15.20;4.57;;;;;;;;;;5040590;28;20494;-81
2022/04/10 05:58:49;;;;;;;10.70;4.80;;;;;;;;;;5042526;28;20237;-80
2022/04/10 06:01:16;;;;;;;11.97;4.97;;;;;;;;;;5043411;28;20247;-82
2022/04/10 06:03:43;;;;;;;12.50;4.43;;;;;;;;;;5039285;28;20267;-80
2022/04/10 06:06:10;;;;;;;11.17;3.80;;;;;;;;;;5039516;28;20228;-81
2022/04/10 06:08:37;;;;;;;10.80;3.90;;;;;;;;;;5042238;28;20306;-80
2022/04/10 06:11:05;;;;;;;13.97;4.00;;;;;;;;;;5040278;28;20270;-80
2022/04/10 06:13:32;;;;;;;11.30;4.33;;;;;;;;;;5036491;28;20238;-80
2022/04/10 06:16:01;;;;;;;9.97;4.50;;;;;;;;;;5038487;28;20235;-79
2022/04/10 06:18:28;;;;;;;9.77;4.33;;;;;;;;;;5043148;28;20207;-81
2022/04/10 06:20:55;;;;;;;11.40;4.00;;;;;;;;;;5032672;28;20267;-80
2022/04/10 06:23:23;;;;;;;8.93;3.93;;;;;;;;;;5043742;28;20264;-81
2022/04/10 06:25:50;;;;;;;10.33;3.77;;;;;;;;;;5042006;28;20249;-81
2022/04/10 06:28:17;;;;;;;12.33;4.00;;;;;;;;;;5044346;28;20543;-81
2022/04/10 06:30:45;;;;;;;10.10;4.33;;;;;;;;;;5046103;28;20712;-81
2022/04/10 06:33:15;;;;;;;15.03;4.37;;;;;;;;;;5043025;28;20207;-81
2022/04/10 06:35:42;;;;;;;8.57;3.97;;;;;;;;;;5034709;28;20223;-79
2022/04/10 06:38:09;;;;;;;16.50;4.70;;;;;;;;;;5044016;28;20210;-81
2022/04/10 06:40:36;;;;;;;10.23;3.70;;;;;;;;;;5036430;28;20293;-81
2022/04/10 06:43:07;;;;;;;13.90;4.33;;;;;;;;;;5044436;28;20230;-82
2022/04/10 06:45:34;;;;;;;10.10;3.33;;;;;;;;;;5038118;28;20204;-80
2022/04/10 06:48:02;;;;;;;12.73;4.17;;;;;;;;;;5041856;28;20340;-82
2022/04/10 06:50:30;;;;;;;11.50;3.77;;;;;;;;;;5037702;28;20314;-82
2022/04/10 06:52:57;;;;;;;13.27;3.90;;;;;;;;;;5041153;28;20211;-81
2022/04/10 06:55:25;;;;;;;8.63;3.87;;;;;;;;;;5038624;28;20254;-81
2022/04/10 06:57:52;;;;;;;12.17;3.83;;;;;;;;;;5046768;28;20202;-81
2022/04/10 07:00:19;;;;;;;11.33;4.17;;;;;;;;;;5042702;28;20318;-80
2022/04/10 07:02:48;;;;;;;11.53;4.27;;;;;;;;;;5039111;28;20738;-80
2022/04/10 07:05:15;;;;;;;9.80;4.20;;;;;;;;;;5047447;28;20211;-82
2022/04/10 07:07:44;;;;;;;12.37;4.17;;;;;;;;;;5047226;28;20912;-81
2022/04/10 07:10:11;;;;;;;12.10;3.97;;;;;;;;;;5046574;28;20291;-82
2022/04/10 07:12:38;;;;;;;14.93;3.90;;;;;;;;;;5044210;28;20238;-81
2022/04/10 07:15:06;;;;;;;8.50;4.00;;;;;;;;;;5042020;28;20202;-81
2022/04/10 07:17:33;;;;;;;13.40;3.97;;;;;;;;;;5038689;28;20222;-80
2022/04/10 07:20:00;;;;;;;16.53;3.50;;;;;;;;;;5044263;28;20318;-82
2022/04/10 07:25:13;;;;;;;7.73;3.20;;;;;;;;;;5050001;28;20213;-82
2022/04/10 07:27:41;;;;;;;6.10;3.07;;;;;;;;;;5039685;28;20223;-81
2022/04/10 07:30:09;;;;;;;6.60;2.57;;;;;;;;;;5039761;28;20232;-82
2022/04/10 07:32:37;;;;;;;6.60;2.43;;;;;;;;;;5040216;28;20226;-80
2022/04/10 07:35:04;;;;;;;9.37;2.87;;;;;;;;;;5040355;28;20214;-82
2022/04/10 07:37:32;;;;;;;9.23;2.90;;;;;;;;;;5038438;28;20199;-81
2022/04/10 07:39:59;;;;;;;12.23;2.70;;;;;;;;;;5036483;28;20661;-80
2022/04/10 07:42:29;;;;;;;11.83;2.60;;;;;;;;;;5040940;28;20203;-82
2022/04/10 07:44:59;;;;;;;7.83;2.60;;;;;;;;;;5039433;28;20199;-79
2022/04/10 07:47:25;;;;;;;8.60;2.40;;;;;;;;;;5040320;28;20221;-80
2022/04/10 07:49:53;;;;;;;12.40;2.83;;;;;;;;;;5040543;28;20313;-82
2022/04/10 07:52:20;;;;;;;6.33;2.60;;;;;;;;;;5039382;28;20214;-80
2022/04/10 07:54:47;;;;;;;6.63;2.43;;;;;;;;;;5044565;28;20575;-81
2022/04/10 07:57:14;;;;;;;8.87;2.57;;;;;;;;;;5041614;28;20277;-80
2022/04/10 07:59:43;;;;;;;8.20;2.63;;;;;;;;;;5039463;28;20247;-82
2022/04/10 08:02:10;;;;;;;10.10;2.53;;;;;;;;;;5040732;28;20306;-80
2022/04/10 08:04:38;;;;;;;10.03;3.00;;;;;;;;;;5040117;28;20195;-81
2022/04/10 08:07:05;;;;;;;6.30;2.63;;;;;;;;;;5041396;28;20273;-81
2022/04/10 08:09:33;;;;;;;6.17;2.60;;;;;;;;;;5036493;28;20257;-81
2022/04/10 08:12:00;;;;;;;9.37;2.80;;;;;;;;;;5039777;28;20211;-81
2022/04/10 08:14:27;;;;;;;7.00;2.53;;;;;;;;;;5043749;28;20266;-81
2022/04/10 08:16:56;;;;;;;10.87;2.37;;;;;;;;;;5042850;28;20289;-82
2022/04/10 08:19:23;;;;;;;7.90;1.90;;;;;;;;;;5043808;28;20253;-80
2022/04/10 08:21:50;;;;;;;10.37;2.67;;;;;;;;;;5039631;28;20267;-81
2022/04/10 08:24:17;;;;;;;5.83;1.77;;;;;;;;;;5039123;28;20547;-83
2022/04/10 08:26:45;;;;;;;8.53;2.10;;;;;;;;;;5038273;28;20287;-82
2022/04/10 08:29:12;;;;;;;7.70;1.90;;;;;;;;;;5043831;28;20203;-82
2022/04/10 08:31:39;;;;;;;12.97;2.10;;;;;;;;;;5047146;28;20288;-82
2022/04/10 08:34:08;;;;;;;7.53;2.10;;;;;;;;;;5041772;28;20212;-81
2022/04/10 08:36:35;;;;;;;5.57;1.70;;;;;;;;;;5038256;28;20751;-81
2022/04/10 08:39:02;;;;;;;7.97;2.20;;;;;;;;;;5042480;28;20233;-81
2022/04/10 08:41:31;;;;;;;12.50;2.07;;;;;;;;;;5038790;28;20238;-82
2022/04/10 08:43:59;;;;;;;8.83;2.00;;;;;;;;;;5042405;28;20217;-82
2022/04/10 08:46:26;;;;;;;7.67;1.60;;;;;;;;;;5044770;28;20196;-80
2022/04/10 08:48:55;;;;;;;4.60;1.63;;;;;;;;;;5045683;28;20303;-82
2022/04/10 08:51:24;;;;;;;5.50;1.60;;;;;;;;;;5040997;28;20230;-80
2022/04/10 08:53:54;;;;;;;6.83;1.70;;;;;;;;;;5043086;28;20262;-80
2022/04/10 08:56:22;;;;;;;8.87;1.93;;;;;;;;;;5044134;28;20231;-84
2022/04/10 08:58:49;;;;;;;5.97;1.97;;;;;;;;;;5066480;22;20207;-82
2022/04/10 09:01:18;;;;;;;6.20;2.00;;;;;;;;;;5045956;28;20229;-82
2022/04/10 09:03:46;;;;;;;6.63;2.00;;;;;;;;;;5049697;28;20561;-83
2022/04/10 09:06:14;;;;;;;7.67;1.97;;;;;;;;;;5042982;28;20697;-82
2022/04/10 09:08:43;;;;;;;5.33;1.83;;;;;;;;;;5043814;28;20595;-81
2022/04/10 09:11:11;;;;;;;7.23;2.10;;;;;;;;;;5047111;28;20698;-81
2022/04/10 09:13:39;;;;;;;3.40;1.90;;;;;;;;;;5049126;28;20636;-81
2022/04/10 09:16:14;;;;;;;6.63;2.50;;;;;;;;;;5041696;28;20242;-82
2022/04/10 09:18:46;;;;;;;7.43;2.97;;;;;;;;;;5041462;28;20207;-82
2022/04/10 09:21:13;;;;;;;8.70;3.03;;;;;;;;;;5046127;28;20662;-80
2022/04/10 09:23:41;;;;;;;7.03;3.00;;;;;;;;;;5044394;28;20662;-81
2022/04/10 09:26:10;;;;;;;9.50;2.70;;;;;;;;;;5044776;28;20214;-82
2022/04/10 09:28:43;;;;;;;5.90;2.27;;;;;;;;;;5042944;28;20318;-82
2022/04/10 09:31:30;;;;;;;6.10;1.93;;;;;;;;;;5047244;28;20203;-83
2022/04/10 09:33:59;;;;;;;8.03;2.30;;;;;;;;;;5049909;28;20264;-82
2022/04/10 09:36:30;;;;;;;10.70;3.67;;;;;;;;;;5046345;28;20282;-82
2022/04/10 09:38:57;;;;;;;7.93;3.53;;;;;;;;;;5046435;28;20555;-82
2022/04/10 09:41:26;;;;;;;5.93;2.77;;;;;;;;;;5051377;28;20207;-82
2022/04/10 09:43:53;;;;;;;6.60;2.13;;;;;;;;;;5044759;28;20211;-81
2022/04/10 09:46:20;;;;;;;8.13;2.50;;;;;;;;;;5046835;28;20778;-82
2022/04/10 09:48:47;;;;;;;10.40;2.30;;;;;;;;;;5043833;28;20804;-82
2022/04/10 09:51:14;;;;;;;7.43;2.33;;;;;;;;;;5046272;28;20685;-82
2022/04/10 09:53:41;;;;;;;10.43;2.57;;;;;;;;;;5044504;28;20405;-82
2022/04/10 09:56:09;;;;;;;9.30;2.43;;;;;;;;;;5041675;28;20212;-81
2022/04/10 09:58:37;;;;;;;5.43;2.30;;;;;;;;;;5044573;28;20203;-82
2022/04/10 10:01:07;;;;;;;5.93;2.10;;;;;;;;;;5040863;28;20297;-81
2022/04/10 10:03:36;;;;;;;8.37;1.70;;;;;;;;;;5045255;28;20655;-81
2022/04/10 10:06:05;;;;;;;5.83;1.97;;;;;;;;;;5044508;28;20204;-82
2022/04/10 10:08:32;;;;;;;7.03;1.90;;;;;;;;;;5042311;28;20258;-81
2022/04/10 10:11:02;;;;;;;5.73;3.13;;;;;;;;;;5047542;28;20245;-81
2022/04/10 10:13:30;;;;;;;6.73;2.97;;;;;;;;;;5044575;28;20200;-82
2022/04/10 10:15:58;;;;;;;4.37;2.07;;;;;;;;;;5042291;28;20206;-82
2022/04/10 10:18:26;;;;;;;6.67;1.87;;;;;;;;;;5052423;28;20535;-82
2022/04/10 10:20:53;;;;;;;7.77;2.47;;;;;;;;;;5044510;28;20259;-82
2022/04/10 10:23:22;;;;;;;6.97;1.90;;;;;;;;;;5043885;28;20531;-81
2022/04/10 10:25:52;;;;;;;5.30;1.60;;;;;;;;;;5048068;28;20207;-82
2022/04/10 10:28:38;;;;;;;7.93;1.80;;;;;;;;;;5043212;28;20245;-81
2022/04/10 10:31:22;;;;;;;3.20;1.50;;;;;;;;;;5051040;28;20293;-82
2022/04/10 10:33:53;;;;;;;6.23;2.07;;;;;;;;;;5047902;28;20273;-82
2022/04/10 10:36:24;;;;;;;4.40;1.47;;;;;;;;;;5050084;28;20211;-82
2022/04/10 10:38:52;;;;;;;3.17;1.50;;;;;;;;;;5048266;28;20209;-82
2022/04/10 10:41:32;;;;;;;4.37;1.47;;;;;;;;;;5049559;28;20195;-82
2022/04/10 10:44:17;;;;;;;4.27;1.63;;;;;;;;;;5048337;28;20227;-83
2022/04/10 10:46:57;;;;;;;6.70;1.37;;;;;;;;;;5044221;28;20213;-82
2022/04/10 10:49:27;;;;;;;6.70;2.37;;;;;;;;;;5045795;28;20234;-83
2022/04/10 10:51:55;;;;;;;3.83;1.60;;;;;;;;;;5047290;28;20678;-82
2022/04/10 10:54:27;;;;;;;6.43;1.70;;;;;;;;;;5045175;28;20210;-83
2022/04/10 10:56:55;;;;;;;8.57;1.80;;;;;;;;;;5046723;28;20234;-83
2022/04/10 10:59:39;;;;;;;5.27;1.60;;;;;;;;;;5046076;28;20762;-81
2022/04/10 11:02:07;;;;;;;5.17;1.33;;;;;;;;;;5041501;28;20327;-82
2022/04/10 11:04:37;;;;;;;5.90;1.57;;;;;;;;;;5050642;28;20201;-83
2022/04/10 11:07:14;;;;;;;6.10;1.60;;;;;;;;;;5042756;28;20291;-81
2022/04/10 11:09:52;;;;;;;2.60;1.33;;;;;;;;;;5046934;28;20222;-83
2022/04/10 11:12:22;;;;;;;6.37;1.27;;;;;;;;;;5044462;28;20233;-80
2022/04/10 11:14:51;;;;;;;5.53;1.50;;;;;;;;;;5044406;28;20206;-82
2022/04/10 11:17:18;;;;;;;3.47;1.20;;;;;;;;;;5045240;28;20225;-82
2022/04/10 11:19:48;;;;;;;4.97;1.30;;;;;;;;;;5047320;28;20241;-81
2022/04/10 11:22:16;;;;;;;4.13;1.47;;;;;;;;;;5044308;28;20254;-82
2022/04/10 11:24:45;;;;;;;3.47;1.80;;;;;;;;;;5043291;28;20207;-82
2022/04/10 11:27:15;;;;;;;3.10;1.30;;;;;;;;;;5046173;28;20234;-82
2022/04/10 11:29:43;;;;;;;5.40;1.50;;;;;;;;;;5043277;28;20223;-82
2022/04/10 11:32:17;;;;;;;5.93;1.50;;;;;;;;;;5048321;28;20242;-81
2022/04/10 11:34:44;;;;;;;5.43;1.40;;;;;;;;;;5043776;28;20250;-81
2022/04/10 11:37:21;;;;;;;3.93;1.40;;;;;;;;;;5039959;28;20203;-82
2022/04/10 11:39:50;;;;;;;7.27;2.70;;;;;;;;;;5045961;28;20601;-82
2022/04/10 11:42:17;;;;;;;4.57;2.07;;;;;;;;;;5043728;28;20210;-80
2022/04/10 11:44:44;;;;;;;4.77;1.60;;;;;;;;;;5045042;28;20203;-82
2022/04/10 11:47:11;;;;;;;3.77;1.37;;;;;;;;;;5049841;28;20215;-84
2022/04/10 11:49:39;;;;;;;4.13;1.53;;;;;;;;;;5050653;28;20237;-82
2022/04/10 11:52:07;;;;;;;4.63;1.37;;;;;;;;;;5047658;28;20213;-82
2022/04/10 11:54:37;;;;;;;6.57;1.60;;;;;;;;;;5043658;28;20214;-84
2022/04/10 11:57:05;;;;;;;3.23;1.80;;;;;;;;;;5046609;28;20211;-85
2022/04/10 11:59:36;;;;;;;4.37;1.53;;;;;;;;;;5045947;28;20226;-85
2022/04/10 12:02:04;;;;;;;7.37;1.50;;;;;;;;;;5043820;28;20249;-83
2022/04/10 12:04:32;;;;;;;2.30;1.20;;;;;;;;;;5046168;28;20611;-84
2022/04/10 12:07:11;;;;;;;3.03;1.50;;;;;;;;;;5048856;28;20213;-84
2022/04/10 12:09:40;;;;;;;4.90;1.40;;;;;;;;;;5045873;28;20277;-84
2022/04/10 12:12:07;;;;;;;4.23;1.23;;;;;;;;;;5041689;28;20238;-83
2022/04/10 12:14:35;;;;;;;1.80;1.20;;;;;;;;;;5052062;28;20211;-84
2022/04/10 12:17:03;;;;;;;2.17;1.10;;;;;;;;;;5045245;28;20200;-84
2022/04/10 12:19:32;;;;;;;2.80;1.40;;;;;;;;;;5049180;28;20223;-83
2022/04/10 12:21:59;;;;;;;3.27;1.37;;;;;;;;;;5044692;28;20258;-84
2022/04/10 12:24:26;;;;;;;3.13;1.20;;;;;;;;;;5043486;28;20298;-84
2022/04/10 12:26:55;;;;;;;9.90;1.73;;;;;;;;;;5049865;28;20302;-84
2022/04/10 12:29:23;;;;;;;6.10;1.63;;;;;;;;;;5046232;28;20691;-84
2022/04/10 12:31:54;;;;;;;7.67;1.97;;;;;;;;;;5050158;28;21126;-85
2022/04/10 12:34:22;;;;;;;9.50;1.60;;;;;;;;;;5049199;28;20258;-83
2022/04/10 12:36:51;;;;;;;6.03;2.87;;;;;;;;;;5047022;28;20211;-84
2022/04/10 12:39:30;;;;;;;4.00;1.73;;;;;;;;;;5047399;28;20253;-82
2022/04/10 12:42:03;;;;;;;3.63;1.50;;;;;;;;;;5047607;28;20675;-84
2022/04/10 12:44:31;;;;;;;5.27;1.60;;;;;;;;;;5043709;28;20218;-83
2022/04/10 12:46:58;;;;;;;3.57;1.40;;;;;;;;;;5047323;28;20257;-83
2022/04/10 12:49:26;;;;;;;3.67;1.60;;;;;;;;;;5042352;28;20231;-83
2022/04/10 12:51:55;;;;;;;3.50;1.57;;;;;;;;;;5042136;28;20222;-83
2022/04/10 12:54:38;;;;;;;5.10;1.87;;;;;;;;;;5041722;28;20211;-83
2022/04/10 12:57:08;;;;;;;5.30;1.70;;;;;;;;;;5043739;28;20743;-82
2022/04/10 12:59:41;;;;;;;5.47;1.40;;;;;;;;;;5043553;28;20656;-83
2022/04/10 13:02:12;;;;;;;5.73;2.10;;;;;;;;;;5041592;28;20250;-82
2022/04/10 13:04:39;;;;;;;7.40;1.70;;;;;;;;;;5043193;28;20369;-82
2022/04/10 13:07:16;;;;;;;4.80;1.80;;;;;;;;;;5046672;28;20204;-84
2022/04/10 13:09:44;;;;;;;2.80;1.60;;;;;;;;;;5047143;28;20245;-83
2022/04/10 13:12:21;;;;;;;5.33;1.47;;;;;;;;;;5042289;28;20207;-85
2022/04/10 13:14:50;;;;;;;5.30;1.80;;;;;;;;;;5040166;28;20299;-81
2022/04/10 13:17:17;;;;;;;5.13;1.90;;;;;;;;;;5043338;28;20226;-82
2022/04/10 13:19:45;;;;;;;4.77;1.77;;;;;;;;;;5044814;28;20763;-82
2022/04/10 13:22:12;;;;;;;3.97;1.80;;;;;;;;;;5044795;28;20282;-83
2022/04/10 13:24:39;;;;;;;5.47;1.60;;;;;;;;;;5048171;28;20210;-82
2022/04/10 13:27:06;;;;;;;4.13;1.80;;;;;;;;;;5043966;28;20196;-82
2022/04/10 13:29:35;;;;;;;4.03;1.50;;;;;;;;;;5045081;28;20289;-83
2022/04/10 13:32:03;;;;;;;3.80;1.53;;;;;;;;;;5048952;28;20289;-82
2022/04/10 13:34:31;;;;;;;3.97;1.40;;;;;;;;;;5047091;28;20204;-85
2022/04/10 13:36:59;;;;;;;6.47;1.67;;;;;;;;;;5056355;28;20214;-84
2022/04/10 13:39:26;;;;;;;6.53;1.30;;;;;;;;;;5057197;28;20215;-81
2022/04/10 13:41:53;;;;;;;4.87;1.40;;;;;;;;;;5051708;28;20770;-83
2022/04/10 13:44:20;;;;;;;2.53;1.20;;;;;;;;;;5045266;28;20215;-84
2022/04/10 13:46:49;;;;;;;4.57;1.50;;;;;;;;;;5047582;28;20195;-84
2022/04/10 13:49:16;;;;;;;3.80;1.60;;;;;;;;;;5052956;28;20736;-84
2022/04/10 13:51:44;;;;;;;5.37;1.37;;;;;;;;;;5045440;28;20270;-83
2022/04/10 13:54:14;;;;;;;4.63;1.83;;;;;;;;;;5049327;28;20241;-84
2022/04/10 13:56:41;;;;;;;6.47;2.67;;;;;;;;;;5046019;28;20215;-84
2022/04/10 13:59:08;;;;;;;3.53;1.90;;;;;;;;;;5045523;28;20662;-83
2022/04/10 14:01:36;;;;;;;3.97;1.73;;;;;;;;;;5047880;28;20284;-83
2022/04/10 14:04:05;;;;;;;4.30;1.80;;;;;;;;;;5047049;28;20297;-84
2022/04/10 14:06:32;;;;;;;3.63;1.23;;;;;;;;;;5047674;28;20241;-83
2022/04/10 14:08:59;;;;;;;6.00;1.43;;;;;;;;;;5047344;28;20228;-82
2022/04/10 14:11:28;;;;;;;7.17;1.83;;;;;;;;;;5045243;28;20293;-83
2022/04/10 14:13:56;;;;;;;2.47;1.63;;;;;;;;;;5045055;28;20218;-83
2022/04/10 14:16:23;;;;;;;7.07;1.63;;;;;;;;;;5051611;28;20210;-82
2022/04/10 14:18:51;;;;;;;4.90;2.00;;;;;;;;;;5043593;28;20595;-82
2022/04/10 14:21:21;;;;;;;4.20;1.80;;;;;;;;;;5050478;28;20233;-82
2022/04/10 14:23:48;;;;;;;7.07;1.77;;;;;;;;;;5046493;28;20213;-83
2022/04/10 14:26:16;;;;;;;4.67;1.23;;;;;;;;;;5045134;28;20242;-83
2022/04/10 14:28:43;;;;;;;8.07;2.30;;;;;;;;;;5045655;28;20257;-83
2022/04/10 14:31:10;;;;;;;5.70;1.93;;;;;;;;;;5048754;28;20303;-84
2022/04/10 14:33:38;;;;;;;5.63;2.00;;;;;;;;;;5045152;28;20237;-84
2022/04/10 14:36:05;;;;;;;3.40;1.77;;;;;;;;;;5043549;28;20294;-84
2022/04/10 14:38:34;;;;;;;3.43;2.00;;;;;;;;;;5045066;28;20206;-84
2022/04/10 14:41:02;;;;;;;4.77;1.70;;;;;;;;;;5038851;28;20219;-83
2022/04/10 14:43:29;;;;;;;4.30;1.40;;;;;;;;;;5043509;28;20261;-83
2022/04/10 14:45:56;;;;;;;4.30;1.80;;;;;;;;;;5041703;28;20282;-84
2022/04/10 14:48:24;;;;;;;4.47;1.50;;;;;;;;;;5042246;28;20294;-83
2022/04/10 14:50:51;;;;;;;3.10;1.90;;;;;;;;;;5045338;28;20227;-84
2022/04/10 14:53:18;;;;;;;3.40;1.53;;;;;;;;;;5046398;28;20215;-84